Terminal Aerodrome Forecast
Issued by NWS

Home | Current Version | Previous Version | Text Only | Print | Product List | Glossary Off
Versions: 1 2 3 4 5 6 7 8 9 10 11 12 13 14 15

000
FTUS43 KIWX 251300 AAA
TAFSBN
TAF AMD
KSBN 251310Z 2513/2612 22008KT 1 1/2SM BR BKN003 OVC007
     FM251400 26015G23KT 5SM BR OVC008
      TEMPO 2514/2515 2SM BR OVC004
     FM251700 26013KT P6SM OVC012
     FM252000 26011KT P6SM SCT015
     FM260000 26006KT P6SM BKN100=

USA.gov is the U.S. government's official web portal to all federal, state and local government web resources and services.